• Join FlightAware (Why Join?)
  • Login
  • US Flag 
03:58AM EDT


 

Airport Tracker/Info


-or-


 

Live Flight TrackerFlight Track Log ✈ SWA3028 ✈ 01-May-2013 ✈ KMDW - KPHL

Flight Track Log - Related Links

Times and Time Zones

All times are in EDT time to prevent confusion due to time zone crossing. See the SWA3028 flight status page for this flight to view local times or setup timezone preferences in your user account.

Time Position Orientation Groundspeed Altitude Reporting Facility
EDT Latitude Longitude Course Direction KTS MPH feet Rate Location/Type
08:35AM 41.7833 -87.7833 37° Northeast 175 201 2,700  Level Chicago TRACON
08:36AM 41.8167 -87.7500 37° Northeast 247 284 4,800 1,200 Climbing Chicago TRACON
08:37AM 41.8167 -87.6333 90° East 283 326 5,000 120 Climbing Chicago TRACON
08:38AM 41.8281 -87.5914 70° East 266 306 5,000 420 Level Chicago Center
08:39AM 41.8242 -87.4869 93° East 277 319 5,700 3,120 Climbing Chicago Center
08:40AM 41.8069 -87.3639 101° East 281 323 11,500 4,680 Climbing Chicago Center
08:41AM 41.7922 -87.2594 101° East 283 326 15,400 3,480 Climbing Chicago Center
08:42AM 41.7928 -87.1408 90° East 321 369 18,700 1,740 Climbing Chicago Center
08:43AM 41.8442 -87.0350 57° Northeast 337 388 19,000 900 Climbing Chicago Center
08:44AM 41.8989 -86.9283 55° Northeast 346 398 20,600 1,920 Climbing Chicago Center
08:45AM 41.9400 -86.8106 65° Northeast 353 406 23,000 1,860 Climbing Chicago Center
08:46AM 41.9281 -86.6508 96° East 401 461 24,500 1,920 Climbing Chicago Center
08:47AM 41.9192 -86.4978 94° East 408 470 27,000 1,200 Climbing Chicago Center
08:48AM 41.9089 -86.3417 95° East 420 483 27,000 1,260 Level Chicago Center
08:49AM 41.8981 -86.1500 94° East 429 494 29,700 2,340 Climbing Chicago Center
08:50AM 41.8872 -85.9847 95° East 440 506 31,800 1,740 Climbing Chicago Center
08:51AM 41.8761 -85.8169 95° East 449 517 33,300 1,140 Climbing Chicago Center
08:52AM 41.8661 -85.6514 95° East 445 512 34,200 780 Climbing Chicago Center
08:53AM 41.8561 -85.4878 95° East 437 503 35,000 780 Climbing Chicago Center
08:54AM 41.8453 -85.3211 95° East 441 507 35,900 1,260 Climbing Chicago Center
08:55AM 41.8319 -85.1575 96° East 438 504 37,700 1,680 Climbing Chicago Center
08:56AM 41.8231 -84.9892 94° East 445 512 39,400 1,620 Climbing Cleveland Center
08:57AM 41.8103 -84.8294 96° East 440 506 41,000 780 Climbing Cleveland Center
08:58AM 41.7994 -84.6697 95° East 434 499 41,000  Level Cleveland Center
08:59AM 41.7883 -84.5158 95° East 427 491 41,000 -480 Level Cleveland Center
09:00AM 41.7789 -84.3564 94° East 427 491 40,100 -960 Descending Cleveland Center
09:01AM 41.7742 -84.1836 92° East 427 491 39,100 -600 Descending Cleveland Center
09:02AM 41.7728 -84.0219 91° East 427 491 39,000 -60 Descending Cleveland Center
09:03AM 41.7733 -83.8603 90° East 427 491 39,000  Level Cleveland Center
09:04AM 41.7697 -83.6986 92° East 427 491 39,000  Level Cleveland Center
09:05AM 41.7656 -83.5397 92° East 427 491 39,000  Level Cleveland Center
09:06AM 41.7528 -83.3806 96° East 422 486 39,000  Level Cleveland Center
09:07AM 41.7358 -83.2211 98° East 429 494 39,000  Level Cleveland Center
09:08AM 41.7206 -83.0619 97° East 429 494 39,000  Level Cleveland Center
09:09AM 41.7031 -82.9000 98° East 429 494 39,000  Level Cleveland Center
09:10AM 41.6872 -82.7547 98° East 434 499 39,000  Level Cleveland Center
09:11AM 41.6714 -82.5875 97° East 439 505 39,000  Level Cleveland Center
09:12AM 41.6553 -82.4256 98° East 439 505 39,000  Level Cleveland Center
09:13AM 41.6392 -82.2531 97° East 439 505 39,000  Level Cleveland Center
09:14AM 41.6206 -82.0914 99° East 434 499 39,000  Level Cleveland Center
09:15AM 41.6061 -81.9328 97° East 429 494 39,000  Level Cleveland Center
09:16AM 41.5892 -81.7686 98° East 429 494 39,000  Level Cleveland Center
09:17AM 41.5697 -81.6100 99° East 429 494 39,000  Level Cleveland Center
09:18AM 41.5522 -81.4683 99° East 429 494 39,000  Level Cleveland Center
09:19AM 41.5344 -81.3072 98° East 429 494 39,000  Level Cleveland Center
09:20AM 41.5019 -81.1486 105° East 429 494 39,000  Level Cleveland Center
09:21AM 41.4131 -81.0122 131° Southeast 424 488 39,000  Level Cleveland Center
09:22AM 41.3239 -80.8956 135° Southeast 441 507 39,000  Level Cleveland Center
09:23AM 41.2364 -80.7736 134° Southeast 452 520 39,000  Level Cleveland Center
09:24AM 41.1492 -80.6547 134° Southeast 452 520 39,000  Level Cleveland Center
09:25AM 41.0742 -80.5472 133° Southeast 447 514 39,000  Level Cleveland Center
09:26AM 40.9883 -80.4292 134° Southeast 447 514 39,000  Level Cleveland Center
09:27AM 40.9006 -80.3111 135° Southeast 447 514 39,000  Level Cleveland Center
09:28AM 40.8044 -80.1828 135° Southeast 447 514 39,000  Level Cleveland Center
09:29AM 40.7228 -80.0817 137° Southeast 447 514 39,000  Level Cleveland Center
09:30AM 40.6347 -79.9675 135° Southeast 436 502 39,000  Level Cleveland Center
09:31AM 40.5486 -79.8564 136° Southeast 436 502 39,000 -420 Level Cleveland Center
09:32AM 40.4581 -79.7481 138° Southeast 436 502 38,200 -540 Descending Cleveland Center
09:33AM 40.3697 -79.6319 135° Southeast 436 502 38,000 -120 Descending Cleveland Center
09:34AM 40.2914 -79.5133 131° Southeast 436 502 38,000  Level Cleveland Center
09:35AM 40.2919 -79.3608 90° East 390 449 38,000  Level Cleveland Center
09:36AM 40.2986 -79.2056 87° East 405 466 38,000  Level Cleveland Center
09:37AM 40.3072 -79.0558 86° East 405 466 38,000  Level Cleveland Center
09:38AM 40.3153 -78.9031 86° East 410 472 38,000  Level Cleveland Center
09:39AM 40.3172 -78.7478 89° East 415 478 38,000 -180 Level Cleveland Center
09:40AM 40.3189 -78.5953 89° East 420 483 37,700 -2,040 Descending Cleveland Center
09:42AM 40.3164 -78.3147 91° East 424 488 32,600 -3,240 Descending New York Center
09:43AM 40.3139 -78.1567 91° East 424 488 28,900 -3,000 Descending New York Center
09:44AM 40.3133 -77.9986 90° East 429 494 26,600 -1,980 Descending New York Center
09:45AM 40.3125 -77.8406 90° East 429 494 25,000 -840 Descending New York Center
09:46AM 40.3050 -77.6844 94° East 429 494 25,000  Level New York Center
09:47AM 40.2839 -77.5464 101° East 429 494 25,000  Level New York Center
09:48AM 40.2625 -77.3728 99° East 435 501 25,000 -600 Level New York Center
09:49AM 40.2431 -77.2322 100° East 430 495 23,800 -2,100 Descending New York Center
09:50AM 40.2261 -77.0839 98° East 430 495 20,900 -2,940 Descending New York Center
09:51AM 40.2064 -76.9406 100° East 409 471 18,100 -1,680 Descending New York Center
09:52AM 40.1886 -76.8006 99° East 393 452 17,600 -840 Descending New York Center
09:53AM 40.1692 -76.6519 100° East 383 441 16,500 -1,140 Descending New York Center
09:54AM 40.1522 -76.5283 100° East 363 418 15,400 -1,080 Descending New York Center
09:55AM 40.1372 -76.4103 99° East 343 395 14,400 -1,260 Descending New York Center
09:56AM 40.1231 -76.3114 101° East 316 364 12,900 -1,200 Descending New York Center
09:57AM 40.1139 -76.1967 96° East 294 338 12,000 -480 Descending New York Center
09:58AM 40.1061 -76.0903 95° East 294 338 12,000 -120 Level New York Center
09:59AM 40.1003 -75.9867 94° East 294 338 11,800 -840 Descending New York Center
10:00AM 40.0917 -75.8964 97° East 294 338 10,300 -1,260 Descending New York Center
10:01AM 40.0839 -75.7900 95° East 274 315 9,300 -1,020 Descending New York Center
10:02AM 40.0772 -75.7028 96° East 268 308 8,400 -1,020 Descending New York Center
10:03AM 40.0711 -75.5939 94° East 273 314 7,300 -1,020 Descending New York Center
10:04AM 40.0683 -75.5094 92° East 273 314 6,400 -660 Descending New York Center
10:05AM 40.0450 -75.4183 108° East 254 292 6,000 -180 Descending New York Center
10:06AM 39.9933 -75.4014 166° South 207 238 6,100  Climbing New York Center
10:07AM 39.9347 -75.4111 187° South 198 228 6,000 -420 Descending New York Center
10:08AM 39.9131 -75.4828 249° West 184 212 5,300 -780 Descending New York Center
10:09AM 39.8933 -75.5600 252° West 207 238 4,500 -660 Descending New York Center
10:10AM 39.8536 -75.6111 225° Southwest 216 249 4,100 -300 Descending New York Center
10:11AM 39.8167 -75.5833 150° Southeast 189 217 4,000 -240 Descending Philadelphia TRACON
10:12AM 39.8167 -75.5167 90° East 191 220 3,700 -600 Descending Philadelphia TRACON
10:13AM 39.8333 -75.4500 72° East 177 204 2,800 -900 Descending Philadelphia TRACON
10:14AM 39.8333 -75.3833 90° East 155 178 1,900 -900 Descending Philadelphia TRACON
10:15AM 39.8500 -75.3500 57° Northeast 122 140 1,100 -720 Descending Philadelphia TRACON
10:16AM 39.8500 -75.3000 90° East 114 131 500 -600 Descending Philadelphia TRACON
10:18AM 39.8667 -75.2333 90° East  Level FlightAware Approximate
10:25AM 39.8722 -75.2409 90° East  Level Estimated